sensor_id;sensor_type;location;lat;lon;timestamp;temperature;humidity
16655;DHT22;8441;51.344;7.022;2022-08-21T00:00:27;17.30;99.90
16655;DHT22;8441;51.344;7.022;2022-08-21T00:02:58;17.30;99.90
16655;DHT22;8441;51.344;7.022;2022-08-21T00:05:27;17.30;99.90
16655;DHT22;8441;51.344;7.022;2022-08-21T00:07:54;17.20;99.90
16655;DHT22;8441;51.344;7.022;2022-08-21T00:10:22;17.00;99.90
16655;DHT22;8441;51.344;7.022;2022-08-21T00:12:49;16.90;99.90
16655;DHT22;8441;51.344;7.022;2022-08-21T00:15:19;16.90;99.90
16655;DHT22;8441;51.344;7.022;2022-08-21T00:17:46;16.80;99.90
16655;DHT22;8441;51.344;7.022;2022-08-21T00:20:16;16.70;99.90
16655;DHT22;8441;51.344;7.022;2022-08-21T00:22:44;16.60;99.90
16655;DHT22;8441;51.344;7.022;2022-08-21T00:25:12;16.50;99.90
16655;DHT22;8441;51.344;7.022;2022-08-21T00:27:40;16.50;99.90
16655;DHT22;8441;51.344;7.022;2022-08-21T00:30:09;16.50;99.90
16655;DHT22;8441;51.344;7.022;2022-08-21T00:32:38;16.40;99.90
16655;DHT22;8441;51.344;7.022;2022-08-21T00:35:07;16.40;99.90
16655;DHT22;8441;51.344;7.022;2022-08-21T00:37:36;16.30;99.90
16655;DHT22;8441;51.344;7.022;2022-08-21T00:40:03;16.30;99.90
16655;DHT22;8441;51.344;7.022;2022-08-21T00:42:31;16.30;99.90
16655;DHT22;8441;51.344;7.022;2022-08-21T00:44:58;16.30;99.90
16655;DHT22;8441;51.344;7.022;2022-08-21T00:47:25;16.20;99.90
16655;DHT22;8441;51.344;7.022;2022-08-21T00:49:52;16.20;99.90
16655;DHT22;8441;51.344;7.022;2022-08-21T00:52:24;16.10;99.90
16655;DHT22;8441;51.344;7.022;2022-08-21T00:54:54;16.10;99.90
16655;DHT22;8441;51.344;7.022;2022-08-21T00:57:26;16.10;99.90
16655;DHT22;8441;51.344;7.022;2022-08-21T00:59:56;16.20;99.90
16655;DHT22;8441;51.344;7.022;2022-08-21T01:02:25;16.30;99.90
16655;DHT22;8441;51.344;7.022;2022-08-21T01:04:52;16.40;99.90
16655;DHT22;8441;51.344;7.022;2022-08-21T01:07:20;16.50;99.90
16655;DHT22;8441;51.344;7.022;2022-08-21T01:09:47;16.50;99.90
16655;DHT22;8441;51.344;7.022;2022-08-21T01:12:17;16.50;99.90
16655;DHT22;8441;51.344;7.022;2022-08-21T01:14:44;16.60;99.90
16655;DHT22;8441;51.344;7.022;2022-08-21T01:17:13;16.60;99.90
16655;DHT22;8441;51.344;7.022;2022-08-21T01:19:41;16.50;99.90
16655;DHT22;8441;51.344;7.022;2022-08-21T01:22:09;16.40;99.90
16655;DHT22;8441;51.344;7.022;2022-08-21T01:24:36;16.30;99.90
16655;DHT22;8441;51.344;7.022;2022-08-21T01:27:04;16.20;99.90
16655;DHT22;8441;51.344;7.022;2022-08-21T01:29:35;16.20;99.90
16655;DHT22;8441;51.344;7.022;2022-08-21T01:32:06;16.10;99.90
16655;DHT22;8441;51.344;7.022;2022-08-21T01:34:36;16.00;99.90
16655;DHT22;8441;51.344;7.022;2022-08-21T01:37:03;16.00;99.90
16655;DHT22;8441;51.344;7.022;2022-08-21T01:39:32;15.90;99.90
16655;DHT22;8441;51.344;7.022;2022-08-21T01:42:00;15.90;99.90
16655;DHT22;8441;51.344;7.022;2022-08-21T01:44:27;15.80;99.90
16655;DHT22;8441;51.344;7.022;2022-08-21T01:46:54;15.80;99.90
16655;DHT22;8441;51.344;7.022;2022-08-21T01:49:21;15.70;99.90
16655;DHT22;8441;51.344;7.022;2022-08-21T01:51:49;15.70;99.90
16655;DHT22;8441;51.344;7.022;2022-08-21T01:54:16;15.70;99.90
16655;DHT22;8441;51.344;7.022;2022-08-21T01:56:46;15.70;99.90
16655;DHT22;8441;51.344;7.022;2022-08-21T01:59:14;15.70;99.90
16655;DHT22;8441;51.344;7.022;2022-08-21T02:01:41;15.70;99.90
16655;DHT22;8441;51.344;7.022;2022-08-21T02:04:10;15.60;99.90
16655;DHT22;8441;51.344;7.022;2022-08-21T02:06:38;15.60;99.90
16655;DHT22;8441;51.344;7.022;2022-08-21T02:09:06;15.60;99.90
16655;DHT22;8441;51.344;7.022;2022-08-21T02:11:34;15.50;99.90
16655;DHT22;8441;51.344;7.022;2022-08-21T02:14:03;15.40;99.90
16655;DHT22;8441;51.344;7.022;2022-08-21T02:16:30;15.40;99.90
16655;DHT22;8441;51.344;7.022;2022-08-21T02:18:57;15.40;99.90
16655;DHT22;8441;51.344;7.022;2022-08-21T02:21:24;15.30;99.90
16655;DHT22;8441;51.344;7.022;2022-08-21T02:23:51;15.30;99.90
16655;DHT22;8441;51.344;7.022;2022-08-21T02:26:18;15.30;99.90
16655;DHT22;8441;51.344;7.022;2022-08-21T02:28:45;15.30;99.90
16655;DHT22;8441;51.344;7.022;2022-08-21T02:31:15;15.20;99.90
16655;DHT22;8441;51.344;7.022;2022-08-21T02:33:42;15.10;99.90
16655;DHT22;8441;51.344;7.022;2022-08-21T02:36:10;15.10;99.90
16655;DHT22;8441;51.344;7.022;2022-08-21T02:38:39;15.20;99.90
16655;DHT22;8441;51.344;7.022;2022-08-21T02:41:10;15.20;99.90
16655;DHT22;8441;51.344;7.022;2022-08-21T02:43:37;15.20;99.90
16655;DHT22;8441;51.344;7.022;2022-08-21T02:46:05;15.20;99.90
16655;DHT22;8441;51.344;7.022;2022-08-21T02:48:35;15.20;99.90
16655;DHT22;8441;51.344;7.022;2022-08-21T02:51:05;15.10;99.90
16655;DHT22;8441;51.344;7.022;2022-08-21T02:53:32;14.90;99.90
16655;DHT22;8441;51.344;7.022;2022-08-21T02:56:02;14.90;99.90
16655;DHT22;8441;51.344;7.022;2022-08-21T02:58:32;14.90;99.90
16655;DHT22;8441;51.344;7.022;2022-08-21T03:01:00;14.80;99.90
16655;DHT22;8441;51.344;7.022;2022-08-21T03:03:28;14.80;99.90
16655;DHT22;8441;51.344;7.022;2022-08-21T03:05:57;14.70;99.90
16655;DHT22;8441;51.344;7.022;2022-08-21T03:08:24;14.80;99.90
16655;DHT22;8441;51.344;7.022;2022-08-21T03:10:52;14.70;99.90
16655;DHT22;8441;51.344;7.022;2022-08-21T03:13:20;14.80;99.90
16655;DHT22;8441;51.344;7.022;2022-08-21T03:15:48;14.70;99.90
16655;DHT22;8441;51.344;7.022;2022-08-21T03:18:16;14.70;99.90
16655;DHT22;8441;51.344;7.022;2022-08-21T03:20:44;14.80;99.90
16655;DHT22;8441;51.344;7.022;2022-08-21T03:23:14;14.80;99.90
16655;DHT22;8441;51.344;7.022;2022-08-21T03:25:41;14.80;99.90
16655;DHT22;8441;51.344;7.022;2022-08-21T03:28:10;14.80;99.90
16655;DHT22;8441;51.344;7.022;2022-08-21T03:30:38;14.90;99.90
16655;DHT22;8441;51.344;7.022;2022-08-21T03:33:05;14.90;99.90
16655;DHT22;8441;51.344;7.022;2022-08-21T03:35:32;14.80;99.90
16655;DHT22;8441;51.344;7.022;2022-08-21T03:37:59;14.80;99.90
16655;DHT22;8441;51.344;7.022;2022-08-21T03:40:28;14.70;99.90
16655;DHT22;8441;51.344;7.022;2022-08-21T03:42:55;14.70;99.90
16655;DHT22;8441;51.344;7.022;2022-08-21T03:45:22;14.70;99.90
16655;DHT22;8441;51.344;7.022;2022-08-21T03:47:53;14.70;99.90
16655;DHT22;8441;51.344;7.022;2022-08-21T03:50:21;14.70;99.90
16655;DHT22;8441;51.344;7.022;2022-08-21T03:52:49;14.70;99.90
16655;DHT22;8441;51.344;7.022;2022-08-21T03:55:16;14.70;99.90
16655;DHT22;8441;51.344;7.022;2022-08-21T03:57:44;14.70;99.90
16655;DHT22;8441;51.344;7.022;2022-08-21T04:00:14;14.60;99.90
16655;DHT22;8441;51.344;7.022;2022-08-21T04:02:42;14.50;99.90
16655;DHT22;8441;51.344;7.022;2022-08-21T04:05:11;14.50;99.90
16655;DHT22;8441;51.344;7.022;2022-08-21T04:07:39;14.50;99.90
16655;DHT22;8441;51.344;7.022;2022-08-21T04:10:07;14.40;99.90
16655;DHT22;8441;51.344;7.022;2022-08-21T04:12:34;14.40;99.90
16655;DHT22;8441;51.344;7.022;2022-08-21T04:15:03;14.40;99.90
16655;DHT22;8441;51.344;7.022;2022-08-21T04:17:30;14.40;99.90
16655;DHT22;8441;51.344;7.022;2022-08-21T04:19:58;14.30;99.90
16655;DHT22;8441;51.344;7.022;2022-08-21T04:22:25;14.30;99.90
16655;DHT22;8441;51.344;7.022;2022-08-21T04:24:52;14.30;99.90
16655;DHT22;8441;51.344;7.022;2022-08-21T04:27:19;14.30;99.90
16655;DHT22;8441;51.344;7.022;2022-08-21T04:29:46;14.20;99.90
16655;DHT22;8441;51.344;7.022;2022-08-21T04:32:21;14.20;99.90
16655;DHT22;8441;51.344;7.022;2022-08-21T04:34:48;14.20;99.90
16655;DHT22;8441;51.344;7.022;2022-08-21T04:37:16;14.10;99.90
16655;DHT22;8441;51.344;7.022;2022-08-21T04:39:43;14.10;99.90
16655;DHT22;8441;51.344;7.022;2022-08-21T04:42:10;14.10;99.90
16655;DHT22;8441;51.344;7.022;2022-08-21T04:44:37;14.10;99.90
16655;DHT22;8441;51.344;7.022;2022-08-21T04:47:04;14.20;99.90
16655;DHT22;8441;51.344;7.022;2022-08-21T04:49:33;14.20;99.90
16655;DHT22;8441;51.344;7.022;2022-08-21T04:52:01;14.20;99.90
16655;DHT22;8441;51.344;7.022;2022-08-21T04:54:29;14.30;99.90
16655;DHT22;8441;51.344;7.022;2022-08-21T04:56:59;14.40;99.90
16655;DHT22;8441;51.344;7.022;2022-08-21T04:59:33;14.40;99.90
16655;DHT22;8441;51.344;7.022;2022-08-21T05:02:02;14.50;99.90
16655;DHT22;8441;51.344;7.022;2022-08-21T05:04:32;14.70;99.90
16655;DHT22;8441;51.344;7.022;2022-08-21T05:07:02;14.90;99.90
16655;DHT22;8441;51.344;7.022;2022-08-21T05:09:31;15.00;99.90
16655;DHT22;8441;51.344;7.022;2022-08-21T05:12:00;15.10;99.90
16655;DHT22;8441;51.344;7.022;2022-08-21T05:14:28;15.10;99.90
16655;DHT22;8441;51.344;7.022;2022-08-21T05:16:55;15.20;99.90
16655;DHT22;8441;51.344;7.022;2022-08-21T05:19:22;15.30;99.90
16655;DHT22;8441;51.344;7.022;2022-08-21T05:21:50;15.30;99.90
16655;DHT22;8441;51.344;7.022;2022-08-21T05:24:17;15.40;99.90
16655;DHT22;8441;51.344;7.022;2022-08-21T05:26:45;15.40;99.90
16655;DHT22;8441;51.344;7.022;2022-08-21T05:29:13;15.50;99.90
16655;DHT22;8441;51.344;7.022;2022-08-21T05:31:40;15.50;99.90
16655;DHT22;8441;51.344;7.022;2022-08-21T05:34:07;15.50;99.90
16655;DHT22;8441;51.344;7.022;2022-08-21T05:36:34;15.60;99.90
16655;DHT22;8441;51.344;7.022;2022-08-21T05:39:03;15.60;99.90
16655;DHT22;8441;51.344;7.022;2022-08-21T05:41:31;15.60;99.90
16655;DHT22;8441;51.344;7.022;2022-08-21T05:43:58;15.60;99.90
16655;DHT22;8441;51.344;7.022;2022-08-21T05:46:25;15.70;99.90
16655;DHT22;8441;51.344;7.022;2022-08-21T05:48:52;15.70;99.90
16655;DHT22;8441;51.344;7.022;2022-08-21T05:51:19;15.70;99.90
16655;DHT22;8441;51.344;7.022;2022-08-21T05:53:46;15.80;99.90
16655;DHT22;8441;51.344;7.022;2022-08-21T05:56:15;15.90;99.90
16655;DHT22;8441;51.344;7.022;2022-08-21T05:58:42;16.00;99.90
16655;DHT22;8441;51.344;7.022;2022-08-21T06:01:09;16.00;99.90
16655;DHT22;8441;51.344;7.022;2022-08-21T06:03:39;16.00;99.90
16655;DHT22;8441;51.344;7.022;2022-08-21T06:06:06;16.00;99.90
16655;DHT22;8441;51.344;7.022;2022-08-21T06:08:33;16.20;99.90
16655;DHT22;8441;51.344;7.022;2022-08-21T06:11:02;16.20;99.90
16655;DHT22;8441;51.344;7.022;2022-08-21T06:13:31;16.30;99.90
16655;DHT22;8441;51.344;7.022;2022-08-21T06:16:04;16.40;99.90
16655;DHT22;8441;51.344;7.022;2022-08-21T06:18:32;16.40;99.90
16655;DHT22;8441;51.344;7.022;2022-08-21T06:21:00;16.40;99.90
16655;DHT22;8441;51.344;7.022;2022-08-21T06:23:27;16.40;99.90
16655;DHT22;8441;51.344;7.022;2022-08-21T06:25:54;16.40;99.90
16655;DHT22;8441;51.344;7.022;2022-08-21T06:28:22;16.50;99.90
16655;DHT22;8441;51.344;7.022;2022-08-21T06:30:50;16.50;99.90
16655;DHT22;8441;51.344;7.022;2022-08-21T06:33:17;16.60;99.90
16655;DHT22;8441;51.344;7.022;2022-08-21T06:35:44;16.60;99.90
16655;DHT22;8441;51.344;7.022;2022-08-21T06:38:11;16.60;99.90
16655;DHT22;8441;51.344;7.022;2022-08-21T06:40:39;16.60;99.90
16655;DHT22;8441;51.344;7.022;2022-08-21T06:43:09;16.60;99.90
16655;DHT22;8441;51.344;7.022;2022-08-21T06:45:36;16.50;99.90
16655;DHT22;8441;51.344;7.022;2022-08-21T06:48:05;16.60;99.90
16655;DHT22;8441;51.344;7.022;2022-08-21T06:50:34;16.50;99.90
16655;DHT22;8441;51.344;7.022;2022-08-21T06:53:03;16.50;99.90
16655;DHT22;8441;51.344;7.022;2022-08-21T06:55:30;16.50;99.90
16655;DHT22;8441;51.344;7.022;2022-08-21T06:57:57;16.50;99.90
16655;DHT22;8441;51.344;7.022;2022-08-21T07:00:25;16.50;99.90
16655;DHT22;8441;51.344;7.022;2022-08-21T07:02:52;16.60;99.90
16655;DHT22;8441;51.344;7.022;2022-08-21T07:05:20;16.60;99.90
16655;DHT22;8441;51.344;7.022;2022-08-21T07:07:47;16.60;99.90
16655;DHT22;8441;51.344;7.022;2022-08-21T07:10:15;16.70;99.90
16655;DHT22;8441;51.344;7.022;2022-08-21T07:12:43;16.80;99.90
16655;DHT22;8441;51.344;7.022;2022-08-21T07:15:10;16.90;99.90
16655;DHT22;8441;51.344;7.022;2022-08-21T07:17:37;16.90;99.90
16655;DHT22;8441;51.344;7.022;2022-08-21T07:20:05;16.90;99.90
16655;DHT22;8441;51.344;7.022;2022-08-21T07:22:35;17.00;99.90
16655;DHT22;8441;51.344;7.022;2022-08-21T07:25:03;17.00;99.90
16655;DHT22;8441;51.344;7.022;2022-08-21T07:27:30;17.00;99.90
16655;DHT22;8441;51.344;7.022;2022-08-21T07:29:58;17.10;99.90
16655;DHT22;8441;51.344;7.022;2022-08-21T07:32:25;17.10;99.90
16655;DHT22;8441;51.344;7.022;2022-08-21T07:34:52;17.20;99.90
16655;DHT22;8441;51.344;7.022;2022-08-21T07:37:19;17.30;99.90
16655;DHT22;8441;51.344;7.022;2022-08-21T07:39:47;17.40;99.90
16655;DHT22;8441;51.344;7.022;2022-08-21T07:42:15;17.50;99.90
16655;DHT22;8441;51.344;7.022;2022-08-21T07:44:42;17.60;99.90
16655;DHT22;8441;51.344;7.022;2022-08-21T07:47:09;17.60;99.90
16655;DHT22;8441;51.344;7.022;2022-08-21T07:49:36;17.60;99.90
16655;DHT22;8441;51.344;7.022;2022-08-21T07:52:04;17.70;99.90
16655;DHT22;8441;51.344;7.022;2022-08-21T07:54:31;17.70;99.90
16655;DHT22;8441;51.344;7.022;2022-08-21T07:56:59;17.80;99.90
16655;DHT22;8441;51.344;7.022;2022-08-21T07:59:26;17.90;99.90
16655;DHT22;8441;51.344;7.022;2022-08-21T08:01:54;18.00;99.90
16655;DHT22;8441;51.344;7.022;2022-08-21T08:04:21;18.00;99.90
16655;DHT22;8441;51.344;7.022;2022-08-21T08:06:48;18.10;99.90
16655;DHT22;8441;51.344;7.022;2022-08-21T08:09:15;18.20;99.90
16655;DHT22;8441;51.344;7.022;2022-08-21T08:11:43;18.20;99.90
16655;DHT22;8441;51.344;7.022;2022-08-21T08:14:12;18.30;99.90
16655;DHT22;8441;51.344;7.022;2022-08-21T08:16:39;18.50;99.90
16655;DHT22;8441;51.344;7.022;2022-08-21T08:19:06;18.60;99.90
16655;DHT22;8441;51.344;7.022;2022-08-21T08:21:33;18.70;99.90
16655;DHT22;8441;51.344;7.022;2022-08-21T08:24:02;18.80;99.90
16655;DHT22;8441;51.344;7.022;2022-08-21T08:26:29;18.90;99.90
16655;DHT22;8441;51.344;7.022;2022-08-21T08:28:56;19.00;99.90
16655;DHT22;8441;51.344;7.022;2022-08-21T08:31:25;19.10;99.90
16655;DHT22;8441;51.344;7.022;2022-08-21T08:33:52;19.20;99.90
16655;DHT22;8441;51.344;7.022;2022-08-21T08:36:19;19.30;99.90
16655;DHT22;8441;51.344;7.022;2022-08-21T08:38:47;19.50;99.90
16655;DHT22;8441;51.344;7.022;2022-08-21T08:41:17;19.50;99.90
16655;DHT22;8441;51.344;7.022;2022-08-21T08:43:51;19.60;99.90
16655;DHT22;8441;51.344;7.022;2022-08-21T08:46:25;19.70;99.90
16655;DHT22;8441;51.344;7.022;2022-08-21T08:48:58;19.90;99.90
16655;DHT22;8441;51.344;7.022;2022-08-21T08:51:39;20.10;99.90
16655;DHT22;8441;51.344;7.022;2022-08-21T08:54:12;20.20;99.90
16655;DHT22;8441;51.344;7.022;2022-08-21T08:56:39;20.30;99.90
16655;DHT22;8441;51.344;7.022;2022-08-21T08:59:09;20.50;99.90
16655;DHT22;8441;51.344;7.022;2022-08-21T09:01:40;20.60;99.90
16655;DHT22;8441;51.344;7.022;2022-08-21T09:04:10;20.80;99.90
16655;DHT22;8441;51.344;7.022;2022-08-21T09:06:57;20.80;99.90
16655;DHT22;8441;51.344;7.022;2022-08-21T09:09:41;21.00;99.90
16655;DHT22;8441;51.344;7.022;2022-08-21T09:12:16;21.10;99.90
16655;DHT22;8441;51.344;7.022;2022-08-21T09:15:00;21.20;99.90
16655;DHT22;8441;51.344;7.022;2022-08-21T09:17:41;21.20;99.90
16655;DHT22;8441;51.344;7.022;2022-08-21T09:20:27;21.30;99.90
16655;DHT22;8441;51.344;7.022;2022-08-21T09:23:05;21.50;99.90
16655;DHT22;8441;51.344;7.022;2022-08-21T09:25:42;21.50;99.90
16655;DHT22;8441;51.344;7.022;2022-08-21T09:28:12;21.50;99.90
16655;DHT22;8441;51.344;7.022;2022-08-21T09:30:41;21.40;99.90
16655;DHT22;8441;51.344;7.022;2022-08-21T09:33:10;21.50;99.90
16655;DHT22;8441;51.344;7.022;2022-08-21T09:35:48;21.60;99.90
16655;DHT22;8441;51.344;7.022;2022-08-21T09:38:26;21.60;99.90
16655;DHT22;8441;51.344;7.022;2022-08-21T09:40:58;21.80;99.90
16655;DHT22;8441;51.344;7.022;2022-08-21T09:43:26;21.80;99.90
16655;DHT22;8441;51.344;7.022;2022-08-21T09:46:09;21.80;99.90
16655;DHT22;8441;51.344;7.022;2022-08-21T09:48:44;21.70;99.90
16655;DHT22;8441;51.344;7.022;2022-08-21T09:51:17;21.70;99.90
16655;DHT22;8441;51.344;7.022;2022-08-21T09:53:48;21.80;99.90
16655;DHT22;8441;51.344;7.022;2022-08-21T09:56:20;21.90;99.90
16655;DHT22;8441;51.344;7.022;2022-08-21T09:59:24;22.00;99.90
16655;DHT22;8441;51.344;7.022;2022-08-21T10:01:52;22.10;99.90
16655;DHT22;8441;51.344;7.022;2022-08-21T10:04:22;22.10;99.90
16655;DHT22;8441;51.344;7.022;2022-08-21T10:06:50;22.10;99.90
16655;DHT22;8441;51.344;7.022;2022-08-21T10:09:19;22.20;99.90
16655;DHT22;8441;51.344;7.022;2022-08-21T10:11:53;22.30;99.90
16655;DHT22;8441;51.344;7.022;2022-08-21T10:14:39;22.40;99.90
16655;DHT22;8441;51.344;7.022;2022-08-21T10:17:13;22.30;99.90
16655;DHT22;8441;51.344;7.022;2022-08-21T10:19:45;22.40;99.90
16655;DHT22;8441;51.344;7.022;2022-08-21T10:22:27;22.50;99.90
16655;DHT22;8441;51.344;7.022;2022-08-21T10:25:06;22.60;99.90
16655;DHT22;8441;51.344;7.022;2022-08-21T10:27:41;22.70;99.90
16655;DHT22;8441;51.344;7.022;2022-08-21T10:30:15;22.60;99.90
16655;DHT22;8441;51.344;7.022;2022-08-21T10:32:54;22.50;99.90
16655;DHT22;8441;51.344;7.022;2022-08-21T10:35:25;22.60;99.90
16655;DHT22;8441;51.344;7.022;2022-08-21T10:38:20;22.60;99.90
16655;DHT22;8441;51.344;7.022;2022-08-21T10:40:58;22.70;99.90
16655;DHT22;8441;51.344;7.022;2022-08-21T10:43:33;22.80;99.90
16655;DHT22;8441;51.344;7.022;2022-08-21T10:46:07;22.80;99.90
16655;DHT22;8441;51.344;7.022;2022-08-21T10:48:36;22.90;99.90
16655;DHT22;8441;51.344;7.022;2022-08-21T10:51:10;23.00;99.90
16655;DHT22;8441;51.344;7.022;2022-08-21T10:53:53;23.10;99.90
16655;DHT22;8441;51.344;7.022;2022-08-21T10:56:23;23.20;99.90
16655;DHT22;8441;51.344;7.022;2022-08-21T10:59:04;23.10;99.90
16655;DHT22;8441;51.344;7.022;2022-08-21T11:01:41;23.20;99.90
16655;DHT22;8441;51.344;7.022;2022-08-21T11:04:13;23.30;99.90
16655;DHT22;8441;51.344;7.022;2022-08-21T11:06:46;23.40;99.90
16655;DHT22;8441;51.344;7.022;2022-08-21T11:09:17;23.50;99.90
16655;DHT22;8441;51.344;7.022;2022-08-21T11:11:50;23.50;99.90
16655;DHT22;8441;51.344;7.022;2022-08-21T11:14:24;23.60;99.90
16655;DHT22;8441;51.344;7.022;2022-08-21T11:16:58;23.70;99.90
16655;DHT22;8441;51.344;7.022;2022-08-21T11:19:30;23.60;99.90
16655;DHT22;8441;51.344;7.022;2022-08-21T11:22:02;23.60;99.90
16655;DHT22;8441;51.344;7.022;2022-08-21T11:24:42;23.60;99.90
16655;DHT22;8441;51.344;7.022;2022-08-21T11:27:19;23.40;99.90
16655;DHT22;8441;51.344;7.022;2022-08-21T11:29:49;23.60;99.90
16655;DHT22;8441;51.344;7.022;2022-08-21T11:32:44;23.60;99.90
16655;DHT22;8441;51.344;7.022;2022-08-21T11:35:20;23.60;99.90
16655;DHT22;8441;51.344;7.022;2022-08-21T11:38:00;23.60;99.90
16655;DHT22;8441;51.344;7.022;2022-08-21T11:40:41;23.70;99.90
16655;DHT22;8441;51.344;7.022;2022-08-21T11:43:15;23.60;99.90
16655;DHT22;8441;51.344;7.022;2022-08-21T11:45:45;23.60;99.90
16655;DHT22;8441;51.344;7.022;2022-08-21T11:48:22;23.90;99.90
16655;DHT22;8441;51.344;7.022;2022-08-21T11:50:54;23.80;99.90
16655;DHT22;8441;51.344;7.022;2022-08-21T11:53:26;23.80;99.90
16655;DHT22;8441;51.344;7.022;2022-08-21T11:56:02;23.90;99.90
16655;DHT22;8441;51.344;7.022;2022-08-21T11:58:33;24.10;99.90
16655;DHT22;8441;51.344;7.022;2022-08-21T12:01:06;24.20;99.90
16655;DHT22;8441;51.344;7.022;2022-08-21T12:03:36;24.30;99.90
16655;DHT22;8441;51.344;7.022;2022-08-21T12:06:06;24.30;99.90
16655;DHT22;8441;51.344;7.022;2022-08-21T12:08:36;24.30;99.90
16655;DHT22;8441;51.344;7.022;2022-08-21T12:11:08;24.30;99.90
16655;DHT22;8441;51.344;7.022;2022-08-21T12:13:37;24.30;99.90
16655;DHT22;8441;51.344;7.022;2022-08-21T12:16:07;24.40;99.90
16655;DHT22;8441;51.344;7.022;2022-08-21T12:18:34;24.50;99.90
16655;DHT22;8441;51.344;7.022;2022-08-21T12:21:16;24.50;99.90
16655;DHT22;8441;51.344;7.022;2022-08-21T12:23:47;24.70;99.90
16655;DHT22;8441;51.344;7.022;2022-08-21T12:26:24;24.70;99.90
16655;DHT22;8441;51.344;7.022;2022-08-21T12:29:14;24.90;99.90
16655;DHT22;8441;51.344;7.022;2022-08-21T12:31:58;25.10;99.90
16655;DHT22;8441;51.344;7.022;2022-08-21T12:34:31;24.90;99.90
16655;DHT22;8441;51.344;7.022;2022-08-21T12:37:02;25.10;99.90
16655;DHT22;8441;51.344;7.022;2022-08-21T12:39:32;25.10;99.90
16655;DHT22;8441;51.344;7.022;2022-08-21T12:42:06;25.20;99.90
16655;DHT22;8441;51.344;7.022;2022-08-21T12:44:38;25.20;99.90
16655;DHT22;8441;51.344;7.022;2022-08-21T12:47:15;25.20;99.90
16655;DHT22;8441;51.344;7.022;2022-08-21T12:49:51;25.20;99.80
16655;DHT22;8441;51.344;7.022;2022-08-21T12:52:22;25.10;99.90
16655;DHT22;8441;51.344;7.022;2022-08-21T12:54:49;25.10;99.90
16655;DHT22;8441;51.344;7.022;2022-08-21T12:57:24;24.90;99.20
16655;DHT22;8441;51.344;7.022;2022-08-21T12:59:55;24.90;99.90
16655;DHT22;8441;51.344;7.022;2022-08-21T13:02:28;24.90;99.10
16655;DHT22;8441;51.344;7.022;2022-08-21T13:04:56;24.80;99.90
16655;DHT22;8441;51.344;7.022;2022-08-21T13:07:28;24.80;99.10
16655;DHT22;8441;51.344;7.022;2022-08-21T13:09:58;24.90;99.40
16655;DHT22;8441;51.344;7.022;2022-08-21T13:12:28;25.10;98.60
16655;DHT22;8441;51.344;7.022;2022-08-21T13:14:57;25.10;97.60
16655;DHT22;8441;51.344;7.022;2022-08-21T13:17:26;24.80;96.50
16655;DHT22;8441;51.344;7.022;2022-08-21T13:19:58;24.80;97.60
16655;DHT22;8441;51.344;7.022;2022-08-21T13:22:26;24.80;97.90
16655;DHT22;8441;51.344;7.022;2022-08-21T13:24:54;24.90;98.80
16655;DHT22;8441;51.344;7.022;2022-08-21T13:27:24;24.80;98.00
16655;DHT22;8441;51.344;7.022;2022-08-21T13:30:09;24.70;98.70
16655;DHT22;8441;51.344;7.022;2022-08-21T13:32:41;24.60;99.40
16655;DHT22;8441;51.344;7.022;2022-08-21T13:35:15;24.60;99.20
16655;DHT22;8441;51.344;7.022;2022-08-21T13:37:43;24.50;99.90
16655;DHT22;8441;51.344;7.022;2022-08-21T13:40:15;24.70;99.10
16655;DHT22;8441;51.344;7.022;2022-08-21T13:42:46;25.10;98.80
16655;DHT22;8441;51.344;7.022;2022-08-21T13:45:24;25.30;98.40
16655;DHT22;8441;51.344;7.022;2022-08-21T13:47:52;25.50;97.90
16655;DHT22;8441;51.344;7.022;2022-08-21T13:50:22;25.50;98.50
16655;DHT22;8441;51.344;7.022;2022-08-21T13:52:56;25.50;97.70
16655;DHT22;8441;51.344;7.022;2022-08-21T13:55:24;25.50;97.60
16655;DHT22;8441;51.344;7.022;2022-08-21T13:58:01;25.60;97.90
16655;DHT22;8441;51.344;7.022;2022-08-21T14:00:32;25.90;96.70
16655;DHT22;8441;51.344;7.022;2022-08-21T14:03:04;26.20;96.80
16655;DHT22;8441;51.344;7.022;2022-08-21T14:05:34;26.30;96.00
16655;DHT22;8441;51.344;7.022;2022-08-21T14:08:06;26.20;96.10
16655;DHT22;8441;51.344;7.022;2022-08-21T14:10:37;26.20;96.00
16655;DHT22;8441;51.344;7.022;2022-08-21T14:13:14;26.20;95.50
16655;DHT22;8441;51.344;7.022;2022-08-21T14:15:55;26.10;95.40
16655;DHT22;8441;51.344;7.022;2022-08-21T14:18:23;26.00;95.30
16655;DHT22;8441;51.344;7.022;2022-08-21T14:20:52;25.90;95.20
16655;DHT22;8441;51.344;7.022;2022-08-21T14:23:29;25.70;95.40
16655;DHT22;8441;51.344;7.022;2022-08-21T14:25:59;25.80;95.60
16655;DHT22;8441;51.344;7.022;2022-08-21T14:28:28;25.90;96.20
16655;DHT22;8441;51.344;7.022;2022-08-21T14:31:11;26.10;95.90
16655;DHT22;8441;51.344;7.022;2022-08-21T14:33:39;26.00;95.10
16655;DHT22;8441;51.344;7.022;2022-08-21T14:36:06;26.10;94.90
16655;DHT22;8441;51.344;7.022;2022-08-21T14:38:35;25.90;94.80
16655;DHT22;8441;51.344;7.022;2022-08-21T14:41:07;25.90;95.70
16655;DHT22;8441;51.344;7.022;2022-08-21T14:43:35;26.20;95.30
16655;DHT22;8441;51.344;7.022;2022-08-21T14:46:04;26.40;95.00
16655;DHT22;8441;51.344;7.022;2022-08-21T14:48:31;26.50;93.90
16655;DHT22;8441;51.344;7.022;2022-08-21T14:50:58;26.70;93.00
16655;DHT22;8441;51.344;7.022;2022-08-21T14:53:25;26.80;93.20
16655;DHT22;8441;51.344;7.022;2022-08-21T14:55:53;26.70;92.70
16655;DHT22;8441;51.344;7.022;2022-08-21T14:58:33;26.80;92.50
16655;DHT22;8441;51.344;7.022;2022-08-21T15:01:02;27.00;93.10
16655;DHT22;8441;51.344;7.022;2022-08-21T15:03:30;27.20;93.00
16655;DHT22;8441;51.344;7.022;2022-08-21T15:05:57;27.10;93.10
16655;DHT22;8441;51.344;7.022;2022-08-21T15:08:24;27.30;93.00
16655;DHT22;8441;51.344;7.022;2022-08-21T15:10:53;27.20;92.70
16655;DHT22;8441;51.344;7.022;2022-08-21T15:13:21;27.20;91.90
16655;DHT22;8441;51.344;7.022;2022-08-21T15:15:49;27.00;92.60
16655;DHT22;8441;51.344;7.022;2022-08-21T15:18:19;27.00;92.50
16655;DHT22;8441;51.344;7.022;2022-08-21T15:20:47;26.70;92.30
16655;DHT22;8441;51.344;7.022;2022-08-21T15:23:15;26.60;91.60
16655;DHT22;8441;51.344;7.022;2022-08-21T15:25:43;26.50;92.00
16655;DHT22;8441;51.344;7.022;2022-08-21T15:28:11;26.40;91.90
16655;DHT22;8441;51.344;7.022;2022-08-21T15:30:40;26.40;92.40
16655;DHT22;8441;51.344;7.022;2022-08-21T15:33:08;26.30;92.80
16655;DHT22;8441;51.344;7.022;2022-08-21T15:35:36;26.20;92.40
16655;DHT22;8441;51.344;7.022;2022-08-21T15:38:04;26.10;92.40
16655;DHT22;8441;51.344;7.022;2022-08-21T15:40:34;26.10;93.00
16655;DHT22;8441;51.344;7.022;2022-08-21T15:43:02;26.20;92.50
16655;DHT22;8441;51.344;7.022;2022-08-21T15:45:30;26.00;92.70
16655;DHT22;8441;51.344;7.022;2022-08-21T15:47:58;25.70;93.10
16655;DHT22;8441;51.344;7.022;2022-08-21T15:50:25;25.60;93.10
16655;DHT22;8441;51.344;7.022;2022-08-21T15:52:54;25.50;93.30
16655;DHT22;8441;51.344;7.022;2022-08-21T15:55:20;25.50;93.30
16655;DHT22;8441;51.344;7.022;2022-08-21T15:57:49;25.30;93.30
16655;DHT22;8441;51.344;7.022;2022-08-21T16:00:20;25.50;93.80
16655;DHT22;8441;51.344;7.022;2022-08-21T16:02:52;25.50;93.50